sensor_id;sensor_type;location;lat;lon;timestamp;pressure;altitude;pressure_sealevel;temperature;humidity
48644;BME280;34928;37.302;-121.984;2023-04-30T01:08:23;100845.0;;;24.70;43.19
48644;BME280;34928;37.302;-121.984;2023-04-30T01:18:32;100846.0;;;28.88;32.20
48644;BME280;34928;37.302;-121.984;2023-04-30T01:28:39;100848.0;;;30.49;28.81
48644;BME280;34928;37.302;-121.984;2023-04-30T01:39:11;100852.0;;;30.94;27.50
48644;BME280;34928;37.302;-121.984;2023-04-30T01:49:24;100859.0;;;31.28;27.08
48644;BME280;34928;37.302;-121.984;2023-04-30T01:59:34;100862.0;;;31.55;26.49
48644;BME280;34928;37.302;-121.984;2023-04-30T02:09:37;100861.0;;;31.23;26.27
48644;BME280;34928;37.302;-121.984;2023-04-30T02:19:43;100862.0;;;31.52;25.32
48644;BME280;34928;37.302;-121.984;2023-04-30T02:29:49;100867.0;;;31.51;26.13
48644;BME280;34928;37.302;-121.984;2023-04-30T02:39:53;100870.0;;;32.25;25.49
48644;BME280;34928;37.302;-121.984;2023-04-30T02:49:57;100873.0;;;31.60;25.85
48644;BME280;34928;37.302;-121.984;2023-04-30T03:00:03;100887.0;;;31.43;25.85
48644;BME280;34928;37.302;-121.984;2023-04-30T03:10:09;100898.0;;;31.35;25.72
48644;BME280;34928;37.302;-121.984;2023-04-30T03:20:13;100917.0;;;30.29;23.89
48644;BME280;34928;37.302;-121.984;2023-04-30T03:30:17;100926.0;;;28.54;26.22
48644;BME280;34928;37.302;-121.984;2023-04-30T03:40:23;100938.0;;;27.15;28.51
48644;BME280;34928;37.302;-121.984;2023-04-30T03:50:28;100939.0;;;26.49;30.03
48644;BME280;34928;37.302;-121.984;2023-04-30T04:00:32;100955.0;;;26.01;30.66
48644;BME280;34928;37.302;-121.984;2023-04-30T04:10:39;100967.0;;;25.42;31.46
48644;BME280;34928;37.302;-121.984;2023-04-30T04:20:43;100973.0;;;25.49;30.85
48644;BME280;34928;37.302;-121.984;2023-04-30T04:30:48;100985.0;;;24.97;31.94
48644;BME280;34928;37.302;-121.984;2023-04-30T04:40:52;100989.0;;;25.05;31.88
48644;BME280;34928;37.302;-121.984;2023-04-30T04:50:59;100985.0;;;25.43;31.39
48644;BME280;34928;37.302;-121.984;2023-04-30T05:01:03;100987.0;;;26.66;30.44
48644;BME280;34928;37.302;-121.984;2023-04-30T05:11:08;100988.0;;;27.62;29.45
48644;BME280;34928;37.302;-121.984;2023-04-30T05:21:13;100991.0;;;28.15;28.93
48644;BME280;34928;37.302;-121.984;2023-04-30T05:31:17;100988.0;;;28.20;28.45
48644;BME280;34928;37.302;-121.984;2023-04-30T05:41:22;100991.0;;;28.47;28.10
48644;BME280;34928;37.302;-121.984;2023-04-30T05:51:27;100994.0;;;28.07;27.91
48644;BME280;34928;37.302;-121.984;2023-04-30T06:01:33;101004.0;;;28.25;28.08
48644;BME280;34928;37.302;-121.984;2023-04-30T06:11:38;101004.0;;;28.30;27.97
48644;BME280;34928;37.302;-121.984;2023-04-30T06:21:43;100988.0;;;28.25;27.79
48644;BME280;34928;37.302;-121.984;2023-04-30T06:31:48;100986.0;;;28.76;27.59
48644;BME280;34928;37.302;-121.984;2023-04-30T06:41:52;100980.0;;;28.63;27.01
48644;BME280;34928;37.302;-121.984;2023-04-30T06:51:59;100982.0;;;28.45;27.16
48644;BME280;34928;37.302;-121.984;2023-04-30T07:02:03;100982.0;;;27.94;27.39
48644;BME280;34928;37.302;-121.984;2023-04-30T07:12:08;100985.0;;;27.76;27.49
48644;BME280;34928;37.302;-121.984;2023-04-30T07:22:12;100983.0;;;27.52;27.66
48644;BME280;34928;37.302;-121.984;2023-04-30T07:32:18;100987.0;;;27.58;27.62
48644;BME280;34928;37.302;-121.984;2023-04-30T07:42:22;100987.0;;;28.01;27.57
48644;BME280;34928;37.302;-121.984;2023-04-30T07:52:29;100975.0;;;27.58;27.29
48644;BME280;34928;37.302;-121.984;2023-04-30T08:02:33;100967.0;;;27.55;27.33
48644;BME280;34928;37.302;-121.984;2023-04-30T08:12:38;100954.0;;;27.75;26.98
48644;BME280;34928;37.302;-121.984;2023-04-30T08:22:47;100950.0;;;27.87;27.11
48644;BME280;34928;37.302;-121.984;2023-04-30T08:32:53;100941.0;;;27.69;27.25
48644;BME280;34928;37.302;-121.984;2023-04-30T08:43:04;100935.0;;;27.62;27.10
48644;BME280;34928;37.302;-121.984;2023-04-30T08:53:08;100923.0;;;27.46;27.38
48644;BME280;34928;37.302;-121.984;2023-04-30T09:03:13;100908.0;;;27.16;27.25
48644;BME280;34928;37.302;-121.984;2023-04-30T09:13:18;100905.0;;;26.90;27.37
48644;BME280;34928;37.302;-121.984;2023-04-30T09:23:23;100896.0;;;27.12;27.28
48644;BME280;34928;37.302;-121.984;2023-04-30T09:33:28;100888.0;;;26.86;27.11
48644;BME280;34928;37.302;-121.984;2023-04-30T09:43:33;100882.0;;;26.77;27.04
48644;BME280;34928;37.302;-121.984;2023-04-30T09:53:50;100875.0;;;26.80;26.86
48644;BME280;34928;37.302;-121.984;2023-04-30T10:03:58;100865.0;;;27.06;26.96
48644;BME280;34928;37.302;-121.984;2023-04-30T10:14:06;100856.0;;;27.13;26.77
48644;BME280;34928;37.302;-121.984;2023-04-30T10:24:15;100852.0;;;26.96;26.80
48644;BME280;34928;37.302;-121.984;2023-04-30T10:34:30;100855.0;;;26.77;26.88
48644;BME280;34928;37.302;-121.984;2023-04-30T10:44:39;100849.0;;;26.55;26.97
48644;BME280;34928;37.302;-121.984;2023-04-30T10:54:49;100855.0;;;26.31;26.92
48644;BME280;34928;37.302;-121.984;2023-04-30T11:15:14;100851.0;;;26.26;26.85
48644;BME280;34928;37.302;-121.984;2023-04-30T11:25:19;100845.0;;;26.24;26.99
48644;BME280;34928;37.302;-121.984;2023-04-30T11:35:24;100834.0;;;26.29;26.87
48644;BME280;34928;37.302;-121.984;2023-04-30T11:45:28;100829.0;;;26.16;26.97
48644;BME280;34928;37.302;-121.984;2023-04-30T11:55:33;100830.0;;;26.06;26.94
48644;BME280;34928;37.302;-121.984;2023-04-30T12:05:40;100826.0;;;25.87;27.00
48644;BME280;34928;37.302;-121.984;2023-04-30T12:15:46;100825.0;;;26.00;26.81
48644;BME280;34928;37.302;-121.984;2023-04-30T12:26:04;100815.0;;;25.70;26.96
48644;BME280;34928;37.302;-121.984;2023-04-30T12:36:11;100816.0;;;25.58;27.00
48644;BME280;34928;37.302;-121.984;2023-04-30T12:46:26;100813.0;;;25.57;26.90
48644;BME280;34928;37.302;-121.984;2023-04-30T12:56:33;100806.0;;;25.46;26.93
48644;BME280;34928;37.302;-121.984;2023-04-30T13:06:38;100813.0;;;25.68;26.98
48644;BME280;34928;37.302;-121.984;2023-04-30T13:16:46;100814.0;;;25.39;26.96
48644;BME280;34928;37.302;-121.984;2023-04-30T13:26:52;100822.0;;;25.65;26.97
48644;BME280;34928;37.302;-121.984;2023-04-30T13:36:58;100838.0;;;25.78;27.07
48644;BME280;34928;37.302;-121.984;2023-04-30T13:47:02;100847.0;;;25.55;27.04
48644;BME280;34928;37.302;-121.984;2023-04-30T13:57:07;100865.0;;;25.21;27.12
48644;BME280;34928;37.302;-121.984;2023-04-30T14:07:14;100873.0;;;25.45;27.06
48644;BME280;34928;37.302;-121.984;2023-04-30T14:17:19;100880.0;;;25.64;27.00
48644;BME280;34928;37.302;-121.984;2023-04-30T14:27:23;100892.0;;;25.66;26.90
48644;BME280;34928;37.302;-121.984;2023-04-30T14:37:28;100896.0;;;25.85;26.60
48644;BME280;34928;37.302;-121.984;2023-04-30T14:47:33;100886.0;;;25.99;26.83
48644;BME280;34928;37.302;-121.984;2023-04-30T14:57:38;100888.0;;;25.28;25.42
48644;BME280;34928;37.302;-121.984;2023-04-30T15:07:43;100884.0;;;25.79;25.30
48644;BME280;34928;37.302;-121.984;2023-04-30T15:17:48;100883.0;;;25.72;26.18
48644;BME280;34928;37.302;-121.984;2023-04-30T15:27:53;100883.0;;;25.63;26.49
48644;BME280;34928;37.302;-121.984;2023-04-30T15:37:58;100884.0;;;25.78;26.15
48644;BME280;34928;37.302;-121.984;2023-04-30T15:48:03;100881.0;;;26.24;26.03
48644;BME280;34928;37.302;-121.984;2023-04-30T15:58:08;100875.0;;;25.86;25.96
48644;BME280;34928;37.302;-121.984;2023-04-30T16:08:13;100876.0;;;25.85;25.99
48644;BME280;34928;37.302;-121.984;2023-04-30T16:18:18;100865.0;;;25.85;25.89
48644;BME280;34928;37.302;-121.984;2023-04-30T16:28:23;100865.0;;;25.79;25.78
48644;BME280;34928;37.302;-121.984;2023-04-30T16:38:29;100867.0;;;26.00;25.81
48644;BME280;34928;37.302;-121.984;2023-04-30T16:48:33;100865.0;;;26.29;25.73
48644;BME280;34928;37.302;-121.984;2023-04-30T16:58:38;100861.0;;;26.49;25.63
48644;BME280;34928;37.302;-121.984;2023-04-30T17:08:44;100864.0;;;26.59;25.69
48644;BME280;34928;37.302;-121.984;2023-04-30T17:18:48;100864.0;;;26.90;25.85
48644;BME280;34928;37.302;-121.984;2023-04-30T17:28:52;100865.0;;;26.84;26.11
48644;BME280;34928;37.302;-121.984;2023-04-30T17:38:57;100865.0;;;26.93;26.07
48644;BME280;34928;37.302;-121.984;2023-04-30T17:49:03;100865.0;;;26.93;26.06
48644;BME280;34928;37.302;-121.984;2023-04-30T17:59:08;100859.0;;;26.91;26.16
48644;BME280;34928;37.302;-121.984;2023-04-30T18:09:13;100861.0;;;27.05;26.15
48644;BME280;34928;37.302;-121.984;2023-04-30T18:19:18;100857.0;;;27.28;26.00
48644;BME280;34928;37.302;-121.984;2023-04-30T18:29:23;100850.0;;;27.73;25.72
48644;BME280;34928;37.302;-121.984;2023-04-30T18:39:28;100844.0;;;27.44;25.57
48644;BME280;34928;37.302;-121.984;2023-04-30T18:49:33;100837.0;;;27.94;25.35
48644;BME280;34928;37.302;-121.984;2023-04-30T18:59:39;100840.0;;;27.59;25.75
48644;BME280;34928;37.302;-121.984;2023-04-30T19:09:44;100831.0;;;27.37;25.72
48644;BME280;34928;37.302;-121.984;2023-04-30T19:19:48;100830.0;;;27.90;25.69
48644;BME280;34928;37.302;-121.984;2023-04-30T19:29:53;100822.0;;;27.89;25.19
48644;BME280;34928;37.302;-121.984;2023-04-30T19:39:58;100801.0;;;28.17;25.16
48644;BME280;34928;37.302;-121.984;2023-04-30T19:50:03;100791.0;;;28.21;24.99
48644;BME280;34928;37.302;-121.984;2023-04-30T20:00:09;100788.0;;;28.23;24.77
48644;BME280;34928;37.302;-121.984;2023-04-30T20:10:12;100790.0;;;27.77;25.15
48644;BME280;34928;37.302;-121.984;2023-04-30T20:20:17;100783.0;;;27.98;25.21
48644;BME280;34928;37.302;-121.984;2023-04-30T20:30:23;100789.0;;;27.94;25.34
48644;BME280;34928;37.302;-121.984;2023-04-30T20:40:28;100797.0;;;28.44;25.07
48644;BME280;34928;37.302;-121.984;2023-04-30T20:50:32;100803.0;;;28.27;24.83
48644;BME280;34928;37.302;-121.984;2023-04-30T21:00:38;100806.0;;;28.12;25.22
48644;BME280;34928;37.302;-121.984;2023-04-30T21:10:45;100816.0;;;28.41;24.86
48644;BME280;34928;37.302;-121.984;2023-04-30T21:20:48;100808.0;;;28.58;24.78
48644;BME280;34928;37.302;-121.984;2023-04-30T21:30:53;100810.0;;;28.74;24.91
48644;BME280;34928;37.302;-121.984;2023-04-30T21:40:57;100798.0;;;28.44;24.96
48644;BME280;34928;37.302;-121.984;2023-04-30T21:51:05;100783.0;;;28.36;25.18
48644;BME280;34928;37.302;-121.984;2023-04-30T22:01:13;100773.0;;;28.65;25.03
48644;BME280;34928;37.302;-121.984;2023-04-30T22:11:18;100773.0;;;28.75;24.89
48644;BME280;34928;37.302;-121.984;2023-04-30T22:21:23;100767.0;;;28.55;24.83
48644;BME280;34928;37.302;-121.984;2023-04-30T22:31:28;100761.0;;;28.94;24.76
48644;BME280;34928;37.302;-121.984;2023-04-30T22:41:33;100743.0;;;28.69;24.52
48644;BME280;34928;37.302;-121.984;2023-04-30T22:51:38;100742.0;;;28.93;24.22
48644;BME280;34928;37.302;-121.984;2023-04-30T23:01:43;100740.0;;;28.93;24.40
48644;BME280;34928;37.302;-121.984;2023-04-30T23:11:47;100734.0;;;29.41;24.15
48644;BME280;34928;37.302;-121.984;2023-04-30T23:21:54;100730.0;;;29.31;24.44
48644;BME280;34928;37.302;-121.984;2023-04-30T23:31:58;100722.0;;;29.17;24.46
48644;BME280;34928;37.302;-121.984;2023-04-30T23:42:03;100721.0;;;29.13;24.54
48644;BME280;34928;37.302;-121.984;2023-04-30T23:52:08;100713.0;;;29.28;24.43
